Garstang, United Kingdom
Current Conditions -  °F | °C
As of 7:20 PM on Thursday 23 Oct 2014 (Local Time) from EGNO Reporting Station
Broken Clouds Broken Clouds  
Wind Chill: 57°   Ceiling: 3900
Heat Index: 57°   Visibility: 6mi
Dew Point: 54°   Wind: 9mph
Humidity: 88%   Direction: 230°SW
Pressure: 29.85"   Gusts: NA
Location:  53.9°N, 2.77°W
Report Text: EGNO 231820Z 23008KT 9999 FEW015 BKN039 14/12 Q1011
Loading
Personal Weather Stations






























Interactive Weather Map
Tropical Storm Tracking
New forecast layout! Learn more

10-Day Weather Forecast

Advertisements
Track Severe Weather on mobile